sensor_id;sensor_type;location;lat;lon;timestamp;pressure;altitude;pressure_sealevel;temperature;humidity
77192;BME280;66172;48.526;8.078;2024-03-17T00:01:03;100359.28;;;8.73;100.00
77192;BME280;66172;48.526;8.078;2024-03-17T00:03:32;100358.91;;;8.66;100.00
77192;BME280;66172;48.526;8.078;2024-03-17T00:05:59;100352.50;;;8.62;100.00
77192;BME280;66172;48.526;8.078;2024-03-17T00:08:25;100351.41;;;8.35;100.00
77192;BME280;66172;48.526;8.078;2024-03-17T00:10:52;100348.63;;;7.94;100.00
77192;BME280;66172;48.526;8.078;2024-03-17T00:13:18;100353.03;;;7.90;100.00
77192;BME280;66172;48.526;8.078;2024-03-17T00:15:44;100346.56;;;7.73;100.00
77192;BME280;66172;48.526;8.078;2024-03-17T00:18:10;100343.28;;;7.76;100.00
77192;BME280;66172;48.526;8.078;2024-03-17T00:20:37;100336.06;;;7.85;100.00
77192;BME280;66172;48.526;8.078;2024-03-17T00:23:04;100336.72;;;8.09;100.00
77192;BME280;66172;48.526;8.078;2024-03-17T00:25:32;100344.75;;;8.28;100.00
77192;BME280;66172;48.526;8.078;2024-03-17T00:28:00;100350.91;;;8.33;100.00
77192;BME280;66172;48.526;8.078;2024-03-17T00:30:26;100345.97;;;8.49;100.00
77192;BME280;66172;48.526;8.078;2024-03-17T00:32:52;100342.94;;;8.23;100.00
77192;BME280;66172;48.526;8.078;2024-03-17T00:35:18;100338.09;;;8.07;100.00
77192;BME280;66172;48.526;8.078;2024-03-17T00:37:47;100338.00;;;7.98;100.00
77192;BME280;66172;48.526;8.078;2024-03-17T00:40:13;100331.88;;;7.92;100.00
77192;BME280;66172;48.526;8.078;2024-03-17T00:42:40;100330.97;;;7.83;100.00
77192;BME280;66172;48.526;8.078;2024-03-17T00:45:06;100329.13;;;7.79;100.00
77192;BME280;66172;48.526;8.078;2024-03-17T00:47:33;100330.34;;;7.73;100.00
77192;BME280;66172;48.526;8.078;2024-03-17T00:49:59;100325.81;;;7.68;100.00
77192;BME280;66172;48.526;8.078;2024-03-17T00:52:24;100322.50;;;7.71;100.00
77192;BME280;66172;48.526;8.078;2024-03-17T00:54:50;100324.72;;;7.69;100.00
77192;BME280;66172;48.526;8.078;2024-03-17T00:57:16;100314.69;;;7.70;100.00
77192;BME280;66172;48.526;8.078;2024-03-17T00:59:42;100313.97;;;7.78;100.00
77192;BME280;66172;48.526;8.078;2024-03-17T01:02:13;100323.50;;;7.75;100.00
77192;BME280;66172;48.526;8.078;2024-03-17T01:04:40;100311.00;;;7.79;100.00
77192;BME280;66172;48.526;8.078;2024-03-17T01:07:06;100309.97;;;7.75;100.00
77192;BME280;66172;48.526;8.078;2024-03-17T01:09:32;100304.09;;;7.87;100.00
77192;BME280;66172;48.526;8.078;2024-03-17T01:11:57;100304.91;;;8.01;100.00
77192;BME280;66172;48.526;8.078;2024-03-17T01:14:23;100307.03;;;8.31;100.00
77192;BME280;66172;48.526;8.078;2024-03-17T01:16:52;100297.69;;;8.37;100.00
77192;BME280;66172;48.526;8.078;2024-03-17T01:19:18;100299.19;;;8.16;100.00
77192;BME280;66172;48.526;8.078;2024-03-17T01:21:44;100291.97;;;8.12;100.00
77192;BME280;66172;48.526;8.078;2024-03-17T01:24:10;100295.72;;;8.29;100.00
77192;BME280;66172;48.526;8.078;2024-03-17T01:26:36;100288.38;;;8.30;100.00
77192;BME280;66172;48.526;8.078;2024-03-17T01:29:02;100284.44;;;8.22;100.00
77192;BME280;66172;48.526;8.078;2024-03-17T01:31:28;100285.66;;;8.16;100.00
77192;BME280;66172;48.526;8.078;2024-03-17T01:33:54;100277.81;;;8.15;100.00
77192;BME280;66172;48.526;8.078;2024-03-17T01:36:20;100270.19;;;8.17;100.00
77192;BME280;66172;48.526;8.078;2024-03-17T01:38:46;100272.31;;;8.33;100.00
77192;BME280;66172;48.526;8.078;2024-03-17T01:41:11;100273.28;;;8.24;100.00
77192;BME280;66172;48.526;8.078;2024-03-17T01:43:39;100275.50;;;8.49;100.00
77192;BME280;66172;48.526;8.078;2024-03-17T01:46:05;100264.13;;;8.61;100.00
77192;BME280;66172;48.526;8.078;2024-03-17T01:48:31;100263.59;;;8.36;100.00
77192;BME280;66172;48.526;8.078;2024-03-17T01:50:57;100256.34;;;8.32;100.00
77192;BME280;66172;48.526;8.078;2024-03-17T01:53:24;100256.56;;;8.35;100.00
77192;BME280;66172;48.526;8.078;2024-03-17T01:55:51;100262.47;;;8.51;100.00
77192;BME280;66172;48.526;8.078;2024-03-17T01:58:20;100263.75;;;8.53;100.00
77192;BME280;66172;48.526;8.078;2024-03-17T02:00:46;100255.88;;;8.66;100.00
77192;BME280;66172;48.526;8.078;2024-03-17T02:03:12;100244.94;;;8.71;99.89
77192;BME280;66172;48.526;8.078;2024-03-17T02:05:38;100249.50;;;8.84;98.86
77192;BME280;66172;48.526;8.078;2024-03-17T02:08:05;100243.81;;;8.72;99.45
77192;BME280;66172;48.526;8.078;2024-03-17T02:10:33;100240.88;;;8.82;98.49
77192;BME280;66172;48.526;8.078;2024-03-17T02:13:00;100245.56;;;8.90;98.27
77192;BME280;66172;48.526;8.078;2024-03-17T02:15:26;100243.31;;;8.70;98.78
77192;BME280;66172;48.526;8.078;2024-03-17T02:17:52;100248.72;;;8.47;100.00
77192;BME280;66172;48.526;8.078;2024-03-17T02:20:18;100247.81;;;8.25;100.00
77192;BME280;66172;48.526;8.078;2024-03-17T02:22:44;100236.19;;;8.11;100.00
77192;BME280;66172;48.526;8.078;2024-03-17T02:25:10;100231.97;;;8.04;100.00
77192;BME280;66172;48.526;8.078;2024-03-17T02:27:36;100242.28;;;8.02;100.00
77192;BME280;66172;48.526;8.078;2024-03-17T02:30:03;100244.22;;;8.29;100.00
77192;BME280;66172;48.526;8.078;2024-03-17T02:32:32;100246.19;;;8.37;100.00
77192;BME280;66172;48.526;8.078;2024-03-17T02:34:59;100241.59;;;8.24;100.00
77192;BME280;66172;48.526;8.078;2024-03-17T02:37:25;100235.56;;;8.41;100.00
77192;BME280;66172;48.526;8.078;2024-03-17T02:39:52;100239.75;;;8.61;100.00
77192;BME280;66172;48.526;8.078;2024-03-17T02:42:18;100230.09;;;8.68;100.00
77192;BME280;66172;48.526;8.078;2024-03-17T02:44:44;100224.38;;;8.56;100.00
77192;BME280;66172;48.526;8.078;2024-03-17T02:47:11;100229.66;;;8.75;99.44
77192;BME280;66172;48.526;8.078;2024-03-17T02:49:40;100224.91;;;8.80;98.22
77192;BME280;66172;48.526;8.078;2024-03-17T02:52:10;100225.41;;;8.46;100.00
77192;BME280;66172;48.526;8.078;2024-03-17T02:54:36;100226.66;;;8.27;100.00
77192;BME280;66172;48.526;8.078;2024-03-17T02:57:03;100221.31;;;8.22;100.00
77192;BME280;66172;48.526;8.078;2024-03-17T02:59:30;100226.84;;;8.30;100.00
77192;BME280;66172;48.526;8.078;2024-03-17T03:01:57;100225.09;;;8.62;100.00
77192;BME280;66172;48.526;8.078;2024-03-17T03:04:23;100225.19;;;8.57;100.00
77192;BME280;66172;48.526;8.078;2024-03-17T03:06:49;100222.13;;;8.36;100.00
77192;BME280;66172;48.526;8.078;2024-03-17T03:09:15;100222.56;;;8.29;100.00
77192;BME280;66172;48.526;8.078;2024-03-17T03:11:47;100218.31;;;8.23;100.00
77192;BME280;66172;48.526;8.078;2024-03-17T03:14:13;100208.50;;;8.14;100.00
77192;BME280;66172;48.526;8.078;2024-03-17T03:16:39;100205.09;;;8.08;100.00
77192;BME280;66172;48.526;8.078;2024-03-17T03:19:04;100199.91;;;7.98;100.00
77192;BME280;66172;48.526;8.078;2024-03-17T03:21:33;100206.59;;;8.00;100.00
77192;BME280;66172;48.526;8.078;2024-03-17T03:23:59;100201.69;;;8.16;100.00
77192;BME280;66172;48.526;8.078;2024-03-17T03:26:25;100201.97;;;8.28;100.00
77192;BME280;66172;48.526;8.078;2024-03-17T03:28:51;100199.34;;;8.23;100.00
77192;BME280;66172;48.526;8.078;2024-03-17T03:31:16;100197.84;;;8.17;100.00
77192;BME280;66172;48.526;8.078;2024-03-17T03:33:43;100201.88;;;8.06;100.00
77192;BME280;66172;48.526;8.078;2024-03-17T03:36:10;100208.91;;;8.07;100.00
77192;BME280;66172;48.526;8.078;2024-03-17T03:38:36;100201.19;;;8.00;100.00
77192;BME280;66172;48.526;8.078;2024-03-17T03:41:10;100188.06;;;7.94;100.00
77192;BME280;66172;48.526;8.078;2024-03-17T03:43:36;100188.53;;;7.96;100.00
77192;BME280;66172;48.526;8.078;2024-03-17T03:46:02;100198.47;;;8.00;100.00
77192;BME280;66172;48.526;8.078;2024-03-17T03:48:29;100201.78;;;7.97;100.00
77192;BME280;66172;48.526;8.078;2024-03-17T03:50:55;100203.50;;;7.93;100.00
77192;BME280;66172;48.526;8.078;2024-03-17T03:53:20;100201.69;;;7.89;100.00
77192;BME280;66172;48.526;8.078;2024-03-17T03:55:46;100200.69;;;7.85;100.00
77192;BME280;66172;48.526;8.078;2024-03-17T03:58:12;100203.50;;;7.93;100.00
77192;BME280;66172;48.526;8.078;2024-03-17T04:00:39;100212.81;;;8.01;100.00
77192;BME280;66172;48.526;8.078;2024-03-17T04:03:05;100204.78;;;7.96;100.00
77192;BME280;66172;48.526;8.078;2024-03-17T04:05:31;100207.63;;;7.91;100.00
77192;BME280;66172;48.526;8.078;2024-03-17T04:07:57;100202.00;;;7.87;100.00
77192;BME280;66172;48.526;8.078;2024-03-17T04:10:24;100204.19;;;7.85;100.00
77192;BME280;66172;48.526;8.078;2024-03-17T04:12:51;100199.78;;;7.76;100.00
77192;BME280;66172;48.526;8.078;2024-03-17T04:15:17;100202.91;;;7.83;100.00
77192;BME280;66172;48.526;8.078;2024-03-17T04:17:43;100198.28;;;7.83;100.00
77192;BME280;66172;48.526;8.078;2024-03-17T04:20:09;100198.59;;;7.82;100.00
77192;BME280;66172;48.526;8.078;2024-03-17T04:22:39;100197.28;;;7.93;100.00
77192;BME280;66172;48.526;8.078;2024-03-17T04:25:06;100193.47;;;7.80;100.00
77192;BME280;66172;48.526;8.078;2024-03-17T04:27:32;100189.56;;;7.86;100.00
77192;BME280;66172;48.526;8.078;2024-03-17T04:29:59;100197.78;;;7.81;100.00
77192;BME280;66172;48.526;8.078;2024-03-17T04:32:25;100201.81;;;7.70;100.00
77192;BME280;66172;48.526;8.078;2024-03-17T04:34:54;100199.47;;;7.64;100.00
77192;BME280;66172;48.526;8.078;2024-03-17T04:37:20;100202.69;;;7.66;100.00
77192;BME280;66172;48.526;8.078;2024-03-17T04:39:46;100198.31;;;7.70;100.00
77192;BME280;66172;48.526;8.078;2024-03-17T04:42:15;100203.59;;;7.61;100.00
77192;BME280;66172;48.526;8.078;2024-03-17T04:44:42;100193.66;;;7.57;100.00
77192;BME280;66172;48.526;8.078;2024-03-17T04:47:09;100201.97;;;7.46;100.00
77192;BME280;66172;48.526;8.078;2024-03-17T04:49:36;100203.47;;;7.39;100.00
77192;BME280;66172;48.526;8.078;2024-03-17T04:52:04;100206.50;;;7.51;100.00
77192;BME280;66172;48.526;8.078;2024-03-17T04:54:33;100204.81;;;7.55;100.00
77192;BME280;66172;48.526;8.078;2024-03-17T04:56:59;100207.50;;;7.55;100.00
77192;BME280;66172;48.526;8.078;2024-03-17T04:59:25;100210.41;;;7.86;100.00
77192;BME280;66172;48.526;8.078;2024-03-17T05:01:52;100213.03;;;7.91;100.00
77192;BME280;66172;48.526;8.078;2024-03-17T05:04:18;100202.97;;;7.50;100.00
77192;BME280;66172;48.526;8.078;2024-03-17T05:06:44;100205.59;;;7.42;100.00
77192;BME280;66172;48.526;8.078;2024-03-17T05:09:18;100203.31;;;7.49;100.00
77192;BME280;66172;48.526;8.078;2024-03-17T05:11:45;100200.88;;;7.47;100.00
77192;BME280;66172;48.526;8.078;2024-03-17T05:14:11;100201.59;;;7.67;100.00
77192;BME280;66172;48.526;8.078;2024-03-17T05:16:37;100198.66;;;7.49;100.00
77192;BME280;66172;48.526;8.078;2024-03-17T05:19:03;100201.59;;;7.67;100.00
77192;BME280;66172;48.526;8.078;2024-03-17T05:21:30;100200.28;;;7.64;100.00
77192;BME280;66172;48.526;8.078;2024-03-17T05:24:01;100204.47;;;7.43;100.00
77192;BME280;66172;48.526;8.078;2024-03-17T05:26:27;100202.38;;;7.40;100.00
77192;BME280;66172;48.526;8.078;2024-03-17T05:28:54;100200.56;;;7.35;100.00
77192;BME280;66172;48.526;8.078;2024-03-17T05:31:20;100186.03;;;7.31;100.00
77192;BME280;66172;48.526;8.078;2024-03-17T05:33:47;100183.59;;;7.16;100.00
77192;BME280;66172;48.526;8.078;2024-03-17T05:36:13;100195.19;;;7.03;100.00
77192;BME280;66172;48.526;8.078;2024-03-17T05:38:39;100199.66;;;6.94;100.00
77192;BME280;66172;48.526;8.078;2024-03-17T05:41:07;100200.84;;;6.88;100.00
77192;BME280;66172;48.526;8.078;2024-03-17T05:43:37;100202.63;;;6.79;100.00
77192;BME280;66172;48.526;8.078;2024-03-17T05:46:05;100196.09;;;6.80;100.00
77192;BME280;66172;48.526;8.078;2024-03-17T05:48:32;100196.94;;;6.94;100.00
77192;BME280;66172;48.526;8.078;2024-03-17T05:51:01;100200.66;;;7.30;100.00
77192;BME280;66172;48.526;8.078;2024-03-17T05:53:28;100201.66;;;7.34;100.00
77192;BME280;66172;48.526;8.078;2024-03-17T05:55:54;100202.88;;;7.42;100.00
77192;BME280;66172;48.526;8.078;2024-03-17T05:58:20;100198.78;;;7.58;100.00
77192;BME280;66172;48.526;8.078;2024-03-17T06:00:46;100195.47;;;7.75;100.00
77192;BME280;66172;48.526;8.078;2024-03-17T06:03:12;100201.81;;;7.70;100.00
77192;BME280;66172;48.526;8.078;2024-03-17T06:05:40;100192.69;;;7.66;100.00
77192;BME280;66172;48.526;8.078;2024-03-17T06:08:09;100201.81;;;7.84;100.00
77192;BME280;66172;48.526;8.078;2024-03-17T06:10:36;100204.31;;;7.80;100.00
77192;BME280;66172;48.526;8.078;2024-03-17T06:13:03;100210.00;;;7.51;100.00
77192;BME280;66172;48.526;8.078;2024-03-17T06:15:29;100199.53;;;7.18;100.00
77192;BME280;66172;48.526;8.078;2024-03-17T06:17:56;100212.13;;;7.09;100.00
77192;BME280;66172;48.526;8.078;2024-03-17T06:20:25;100208.28;;;6.96;100.00
77192;BME280;66172;48.526;8.078;2024-03-17T06:22:54;100203.75;;;6.91;100.00
77192;BME280;66172;48.526;8.078;2024-03-17T06:25:20;100192.28;;;6.99;100.00
77192;BME280;66172;48.526;8.078;2024-03-17T06:27:50;100195.47;;;7.01;100.00
77192;BME280;66172;48.526;8.078;2024-03-17T06:30:16;100204.78;;;6.95;100.00
77192;BME280;66172;48.526;8.078;2024-03-17T06:32:43;100196.41;;;7.11;100.00
77192;BME280;66172;48.526;8.078;2024-03-17T06:35:13;100196.34;;;7.29;100.00
77192;BME280;66172;48.526;8.078;2024-03-17T06:37:42;100194.47;;;7.43;100.00
77192;BME280;66172;48.526;8.078;2024-03-17T06:40:13;100199.59;;;7.45;100.00
77192;BME280;66172;48.526;8.078;2024-03-17T06:42:39;100198.38;;;7.78;100.00
77192;BME280;66172;48.526;8.078;2024-03-17T06:45:06;100196.16;;;8.08;100.00
77192;BME280;66172;48.526;8.078;2024-03-17T06:47:37;100193.66;;;7.97;100.00
77192;BME280;66172;48.526;8.078;2024-03-17T06:50:04;100190.06;;;8.02;100.00
77192;BME280;66172;48.526;8.078;2024-03-17T06:52:30;100202.16;;;8.18;100.00
77192;BME280;66172;48.526;8.078;2024-03-17T06:54:57;100198.34;;;8.19;100.00
77192;BME280;66172;48.526;8.078;2024-03-17T06:57:24;100192.84;;;8.11;100.00
77192;BME280;66172;48.526;8.078;2024-03-17T06:59:50;100197.44;;;8.24;100.00
77192;BME280;66172;48.526;8.078;2024-03-17T07:02:16;100197.94;;;8.39;99.53
77192;BME280;66172;48.526;8.078;2024-03-17T07:04:44;100202.56;;;8.39;99.70
77192;BME280;66172;48.526;8.078;2024-03-17T07:07:10;100204.69;;;8.28;99.81
77192;BME280;66172;48.526;8.078;2024-03-17T07:09:38;100194.91;;;8.27;100.00
77192;BME280;66172;48.526;8.078;2024-03-17T07:12:10;100190.72;;;8.35;100.00
77192;BME280;66172;48.526;8.078;2024-03-17T07:14:37;100196.56;;;8.28;100.00
77192;BME280;66172;48.526;8.078;2024-03-17T07:17:03;100191.22;;;8.23;100.00
77192;BME280;66172;48.526;8.078;2024-03-17T07:19:30;100195.34;;;8.21;100.00
77192;BME280;66172;48.526;8.078;2024-03-17T07:21:57;100199.84;;;8.25;100.00
77192;BME280;66172;48.526;8.078;2024-03-17T07:24:23;100198.84;;;8.35;100.00
77192;BME280;66172;48.526;8.078;2024-03-17T07:26:49;100203.34;;;8.39;100.00
77192;BME280;66172;48.526;8.078;2024-03-17T07:29:16;100202.03;;;8.50;99.63
77192;BME280;66172;48.526;8.078;2024-03-17T07:31:42;100211.81;;;8.60;99.77
77192;BME280;66172;48.526;8.078;2024-03-17T07:34:08;100211.09;;;8.90;98.04
77192;BME280;66172;48.526;8.078;2024-03-17T07:36:34;100213.63;;;9.09;96.99
77192;BME280;66172;48.526;8.078;2024-03-17T07:39:00;100211.69;;;9.32;96.22
77192;BME280;66172;48.526;8.078;2024-03-17T07:41:26;100213.31;;;9.64;94.75
77192;BME280;66172;48.526;8.078;2024-03-17T07:43:52;100220.75;;;9.97;93.82
77192;BME280;66172;48.526;8.078;2024-03-17T07:46:18;100208.56;;;10.26;91.79
77192;BME280;66172;48.526;8.078;2024-03-17T07:48:44;100200.41;;;10.60;90.51
77192;BME280;66172;48.526;8.078;2024-03-17T07:51:14;100198.31;;;11.00;88.64
77192;BME280;66172;48.526;8.078;2024-03-17T07:53:43;100194.44;;;11.65;85.38
77192;BME280;66172;48.526;8.078;2024-03-17T07:56:16;100204.06;;;12.09;81.77
77192;BME280;66172;48.526;8.078;2024-03-17T07:58:43;100203.81;;;12.22;80.46
77192;BME280;66172;48.526;8.078;2024-03-17T08:01:11;100200.38;;;12.55;79.15
77192;BME280;66172;48.526;8.078;2024-03-17T08:03:41;100196.97;;;12.78;78.00
77192;BME280;66172;48.526;8.078;2024-03-17T08:06:10;100206.66;;;12.88;76.54
77192;BME280;66172;48.526;8.078;2024-03-17T08:08:39;100217.53;;;12.76;76.98
77192;BME280;66172;48.526;8.078;2024-03-17T08:11:05;100204.50;;;12.61;78.37
77192;BME280;66172;48.526;8.078;2024-03-17T08:13:31;100203.09;;;12.55;77.97
77192;BME280;66172;48.526;8.078;2024-03-17T08:16:02;100195.25;;;12.53;77.67
77192;BME280;66172;48.526;8.078;2024-03-17T08:18:29;100201.09;;;12.43;77.48
77192;BME280;66172;48.526;8.078;2024-03-17T08:20:55;100200.63;;;12.41;77.79
77192;BME280;66172;48.526;8.078;2024-03-17T08:23:22;100200.97;;;12.60;77.86
77192;BME280;66172;48.526;8.078;2024-03-17T08:25:57;100193.25;;;12.83;77.47
77192;BME280;66172;48.526;8.078;2024-03-17T08:28:25;100197.28;;;12.97;75.82
77192;BME280;66172;48.526;8.078;2024-03-17T08:30:56;100193.53;;;13.02;75.36
77192;BME280;66172;48.526;8.078;2024-03-17T08:33:22;100200.31;;;13.17;75.42
77192;BME280;66172;48.526;8.078;2024-03-17T08:35:55;100194.03;;;13.49;73.48
77192;BME280;66172;48.526;8.078;2024-03-17T08:38:22;100187.78;;;14.09;72.13
77192;BME280;66172;48.526;8.078;2024-03-17T08:40:52;100189.13;;;14.52;69.46
77192;BME280;66172;48.526;8.078;2024-03-17T08:43:19;100186.78;;;14.66;68.39
77192;BME280;66172;48.526;8.078;2024-03-17T08:45:53;100191.44;;;15.05;67.32
77192;BME280;66172;48.526;8.078;2024-03-17T08:48:19;100183.19;;;15.48;67.20
77192;BME280;66172;48.526;8.078;2024-03-17T08:50:53;100186.34;;;15.35;65.52
77192;BME280;66172;48.526;8.078;2024-03-17T08:53:20;100183.78;;;15.26;66.40
77192;BME280;66172;48.526;8.078;2024-03-17T08:55:46;100189.69;;;15.13;66.95
77192;BME280;66172;48.526;8.078;2024-03-17T08:58:12;100190.81;;;15.12;66.33
77192;BME280;66172;48.526;8.078;2024-03-17T09:00:37;100193.28;;;15.17;66.75
77192;BME280;66172;48.526;8.078;2024-03-17T09:03:04;100198.00;;;15.16;66.96
77192;BME280;66172;48.526;8.078;2024-03-17T09:05:32;100197.72;;;15.65;65.35
77192;BME280;66172;48.526;8.078;2024-03-17T09:07:59;100194.16;;;16.11;64.42
77192;BME280;66172;48.526;8.078;2024-03-17T09:10:25;100193.03;;;16.31;62.75
77192;BME280;66172;48.526;8.078;2024-03-17T09:12:50;100188.03;;;16.72;61.45
77192;BME280;66172;48.526;8.078;2024-03-17T09:15:16;100194.41;;;16.76;60.69
77192;BME280;66172;48.526;8.078;2024-03-17T09:17:42;100194.41;;;16.57;60.70
77192;BME280;66172;48.526;8.078;2024-03-17T09:20:12;100199.47;;;16.93;59.80
77192;BME280;66172;48.526;8.078;2024-03-17T09:22:38;100203.72;;;16.71;58.60
77192;BME280;66172;48.526;8.078;2024-03-17T09:25:06;100204.09;;;16.70;59.54
77192;BME280;66172;48.526;8.078;2024-03-17T09:27:33;100202.88;;;16.86;59.22
77192;BME280;66172;48.526;8.078;2024-03-17T09:30:00;100204.25;;;16.42;59.11
77192;BME280;66172;48.526;8.078;2024-03-17T09:32:26;100203.38;;;16.73;59.48
77192;BME280;66172;48.526;8.078;2024-03-17T09:34:51;100202.91;;;16.52;59.33
77192;BME280;66172;48.526;8.078;2024-03-17T09:37:17;100189.34;;;16.59;59.09
77192;BME280;66172;48.526;8.078;2024-03-17T09:39:47;100188.56;;;16.77;58.98
77192;BME280;66172;48.526;8.078;2024-03-17T09:42:17;100185.59;;;16.67;58.96
77192;BME280;66172;48.526;8.078;2024-03-17T09:44:48;100188.03;;;16.53;58.50
77192;BME280;66172;48.526;8.078;2024-03-17T09:47:21;100188.34;;;16.67;59.01
77192;BME280;66172;48.526;8.078;2024-03-17T09:49:48;100185.00;;;16.58;59.43
77192;BME280;66172;48.526;8.078;2024-03-17T09:52:21;100191.31;;;16.77;59.83
77192;BME280;66172;48.526;8.078;2024-03-17T09:55:01;100189.31;;;16.74;59.33
77192;BME280;66172;48.526;8.078;2024-03-17T09:57:30;100184.00;;;16.66;59.57
77192;BME280;66172;48.526;8.078;2024-03-17T10:00:13;100179.34;;;16.50;59.94
77192;BME280;66172;48.526;8.078;2024-03-17T10:02:46;100170.84;;;16.56;60.30
77192;BME280;66172;48.526;8.078;2024-03-17T10:05:23;100171.41;;;16.45;61.14
77192;BME280;66172;48.526;8.078;2024-03-17T10:07:50;100183.59;;;16.48;61.09
77192;BME280;66172;48.526;8.078;2024-03-17T10:10:17;100179.81;;;16.37;61.17
77192;BME280;66172;48.526;8.078;2024-03-17T10:12:49;100182.78;;;16.28;61.75
77192;BME280;66172;48.526;8.078;2024-03-17T10:15:15;100182.88;;;16.51;60.86
77192;BME280;66172;48.526;8.078;2024-03-17T10:17:41;100183.69;;;16.52;61.53
77192;BME280;66172;48.526;8.078;2024-03-17T10:20:20;100180.34;;;16.42;62.18
77192;BME280;66172;48.526;8.078;2024-03-17T10:23:04;100183.59;;;16.64;61.88
77192;BME280;66172;48.526;8.078;2024-03-17T10:25:32;100187.41;;;16.43;61.77
77192;BME280;66172;48.526;8.078;2024-03-17T10:27:59;100194.22;;;16.49;61.33
77192;BME280;66172;48.526;8.078;2024-03-17T10:30:27;100183.59;;;16.48;61.29
77192;BME280;66172;48.526;8.078;2024-03-17T10:32:58;100179.59;;;16.26;61.02
77192;BME280;66172;48.526;8.078;2024-03-17T10:37:57;100176.19;;;16.33;61.71
77192;BME280;66172;48.526;8.078;2024-03-17T10:40:24;100170.94;;;16.43;60.82
77192;BME280;66172;48.526;8.078;2024-03-17T10:42:50;100171.03;;;16.12;62.28
77192;BME280;66172;48.526;8.078;2024-03-17T10:45:16;100166.91;;;16.37;62.06
77192;BME280;66172;48.526;8.078;2024-03-17T10:47:47;100165.84;;;16.61;61.21
77192;BME280;66172;48.526;8.078;2024-03-17T10:50:23;100165.72;;;16.73;60.95
77192;BME280;66172;48.526;8.078;2024-03-17T10:52:55;100172.91;;;17.20;60.66
77192;BME280;66172;48.526;8.078;2024-03-17T10:55:25;100166.25;;;17.21;58.96
77192;BME280;66172;48.526;8.078;2024-03-17T10:57:53;100164.31;;;17.44;56.98
77192;BME280;66172;48.526;8.078;2024-03-17T11:00:21;100166.44;;;17.31;57.85
77192;BME280;66172;48.526;8.078;2024-03-17T11:02:52;100160.94;;;17.31;58.37
77192;BME280;66172;48.526;8.078;2024-03-17T11:05:25;100167.22;;;17.32;59.50
77192;BME280;66172;48.526;8.078;2024-03-17T11:07:56;100169.53;;;17.07;59.46
77192;BME280;66172;48.526;8.078;2024-03-17T11:10:29;100166.84;;;17.11;59.12
77192;BME280;66172;48.526;8.078;2024-03-17T11:12:59;100165.34;;;17.13;58.47
77192;BME280;66172;48.526;8.078;2024-03-17T11:20:33;100164.19;;;17.37;58.95
77192;BME280;66172;48.526;8.078;2024-03-17T11:23:00;100154.28;;;17.32;58.62
77192;BME280;66172;48.526;8.078;2024-03-17T11:27:53;100162.41;;;17.25;58.55
77192;BME280;66172;48.526;8.078;2024-03-17T11:30:48;100159.50;;;17.37;58.41
77192;BME280;66172;48.526;8.078;2024-03-17T11:41:42;100152.22;;;17.26;59.48
77192;BME280;66172;48.526;8.078;2024-03-17T11:47:04;100138.59;;;17.56;58.04
77192;BME280;66172;48.526;8.078;2024-03-17T11:49:31;100137.31;;;17.27;58.88
77192;BME280;66172;48.526;8.078;2024-03-17T11:52:02;100140.44;;;17.48;58.67
77192;BME280;66172;48.526;8.078;2024-03-17T11:54:35;100147.00;;;17.21;58.91
77192;BME280;66172;48.526;8.078;2024-03-17T11:57:03;100141.81;;;17.38;58.88
77192;BME280;66172;48.526;8.078;2024-03-17T11:59:30;100143.06;;;17.41;58.36
77192;BME280;66172;48.526;8.078;2024-03-17T12:01:56;100134.13;;;17.47;58.80
77192;BME280;66172;48.526;8.078;2024-03-17T12:04:23;100136.81;;;17.44;59.06
77192;BME280;66172;48.526;8.078;2024-03-17T12:06:54;100133.94;;;17.60;58.78
77192;BME280;66172;48.526;8.078;2024-03-17T12:09:25;100136.75;;;17.63;57.39
77192;BME280;66172;48.526;8.078;2024-03-17T12:14:25;100133.56;;;17.38;57.69
77192;BME280;66172;48.526;8.078;2024-03-17T12:16:56;100129.97;;;17.34;58.16
77192;BME280;66172;48.526;8.078;2024-03-17T12:19:23;100130.75;;;17.35;59.03
77192;BME280;66172;48.526;8.078;2024-03-17T12:21:53;100124.00;;;16.87;58.28
77192;BME280;66172;48.526;8.078;2024-03-17T12:24:29;100129.56;;;16.52;59.60
77192;BME280;66172;48.526;8.078;2024-03-17T12:26:56;100117.75;;;16.67;60.58
77192;BME280;66172;48.526;8.078;2024-03-17T12:29:27;100121.50;;;16.59;61.50
77192;BME280;66172;48.526;8.078;2024-03-17T12:31:59;100128.00;;;16.70;61.65
77192;BME280;66172;48.526;8.078;2024-03-17T12:34:29;100131.25;;;16.57;61.16
77192;BME280;66172;48.526;8.078;2024-03-17T12:36:57;100125.53;;;16.65;60.64
77192;BME280;66172;48.526;8.078;2024-03-17T12:39:31;100115.41;;;16.50;62.27
77192;BME280;66172;48.526;8.078;2024-03-17T12:42:07;100116.34;;;16.58;62.04
77192;BME280;66172;48.526;8.078;2024-03-17T12:44:37;100110.28;;;16.48;62.17
77192;BME280;66172;48.526;8.078;2024-03-17T12:47:11;100106.88;;;16.36;63.07
77192;BME280;66172;48.526;8.078;2024-03-17T12:49:45;100112.38;;;16.36;62.61
77192;BME280;66172;48.526;8.078;2024-03-17T12:52:25;100102.22;;;16.40;62.10
77192;BME280;66172;48.526;8.078;2024-03-17T12:55:04;100100.75;;;16.42;62.24
77192;BME280;66172;48.526;8.078;2024-03-17T12:57:52;100090.91;;;16.41;61.30
77192;BME280;66172;48.526;8.078;2024-03-17T13:00:37;100094.31;;;16.35;61.87
77192;BME280;66172;48.526;8.078;2024-03-17T13:03:04;100091.63;;;16.19;61.91
77192;BME280;66172;48.526;8.078;2024-03-17T13:05:36;100089.69;;;16.39;61.11
77192;BME280;66172;48.526;8.078;2024-03-17T13:08:03;100091.84;;;16.30;61.03
77192;BME280;66172;48.526;8.078;2024-03-17T13:10:30;100087.28;;;16.18;61.49
77192;BME280;66172;48.526;8.078;2024-03-17T13:13:03;100081.59;;;16.27;61.88
77192;BME280;66172;48.526;8.078;2024-03-17T13:15:30;100068.16;;;16.41;61.50
77192;BME280;66172;48.526;8.078;2024-03-17T13:17:57;100075.31;;;16.65;60.47